Big Piney, WY weather

Big Piney-Marbleton Airport (AMOS), Big Piney, WY: 8/25/2016 09:53
Visibility10 statute mileslots of clouds
View 7-Day Forecast
Area Summary
Sky/CloudsSolid Overcast at 3800ft
Weather [last 24 hours]None
Pressure30.36 in.Hg (1028 hPa)
Dew Point37.9 F (3.3 C)
Relative Humidity58.6 %
Temperature52 F (11.1 C)red thermometer
Wind10.4 MPH (9 KT) green arrow pointing 202.5 degrees
Wind FromSouth/Southwest (200 Degrees)
Twilight Begins06:08Sunshine Yesterday
Sunrise06:38N/A
Sunset20:05
Twilight Ends20:35
METARKBPI 251553Z AUTO 20009KT 10SM OVC038 11/03 A3036 RMK AO2 SLP210 T01110033
Tags: